sensor_id;sensor_type;location;lat;lon;timestamp;P1;durP1;ratioP1;P2;durP2;ratioP2
5890;SDS011;2971;52.420;7.080;2023-07-29T00:01:50;19.83;;;17.87;;
5890;SDS011;2971;52.420;7.080;2023-07-29T00:04:16;22.97;;;20.00;;
5890;SDS011;2971;52.420;7.080;2023-07-29T00:06:41;22.53;;;20.23;;
5890;SDS011;2971;52.420;7.080;2023-07-29T00:09:07;21.10;;;19.10;;
5890;SDS011;2971;52.420;7.080;2023-07-29T00:11:32;20.60;;;18.60;;
5890;SDS011;2971;52.420;7.080;2023-07-29T00:13:59;19.70;;;17.87;;
5890;SDS011;2971;52.420;7.080;2023-07-29T00:16:26;20.00;;;17.90;;
5890;SDS011;2971;52.420;7.080;2023-07-29T00:18:51;20.87;;;18.77;;
5890;SDS011;2971;52.420;7.080;2023-07-29T00:21:17;20.30;;;18.17;;
5890;SDS011;2971;52.420;7.080;2023-07-29T00:23:42;19.57;;;17.77;;
5890;SDS011;2971;52.420;7.080;2023-07-29T00:26:07;19.43;;;17.33;;
5890;SDS011;2971;52.420;7.080;2023-07-29T00:28:33;19.87;;;17.90;;
5890;SDS011;2971;52.420;7.080;2023-07-29T00:30:58;19.53;;;17.63;;
5890;SDS011;2971;52.420;7.080;2023-07-29T00:33:24;20.13;;;18.23;;
5890;SDS011;2971;52.420;7.080;2023-07-29T00:35:49;19.80;;;17.90;;
5890;SDS011;2971;52.420;7.080;2023-07-29T00:38:14;22.03;;;19.70;;
5890;SDS011;2971;52.420;7.080;2023-07-29T00:40:40;19.73;;;17.90;;
5890;SDS011;2971;52.420;7.080;2023-07-29T00:43:05;18.13;;;16.53;;
5890;SDS011;2971;52.420;7.080;2023-07-29T00:45:31;18.93;;;17.13;;
5890;SDS011;2971;52.420;7.080;2023-07-29T00:47:58;19.03;;;17.07;;
5890;SDS011;2971;52.420;7.080;2023-07-29T00:50:23;19.00;;;17.10;;
5890;SDS011;2971;52.420;7.080;2023-07-29T00:52:49;18.50;;;16.60;;
5890;SDS011;2971;52.420;7.080;2023-07-29T00:55:14;18.47;;;16.50;;
5890;SDS011;2971;52.420;7.080;2023-07-29T00:57:40;18.10;;;16.30;;
5890;SDS011;2971;52.420;7.080;2023-07-29T01:00:07;17.57;;;15.77;;
5890;SDS011;2971;52.420;7.080;2023-07-29T01:02:33;17.57;;;15.70;;
5890;SDS011;2971;52.420;7.080;2023-07-29T01:05:00;17.50;;;15.70;;
5890;SDS011;2971;52.420;7.080;2023-07-29T01:15:31;17.40;;;15.57;;
5890;SDS011;2971;52.420;7.080;2023-07-29T01:18:08;18.23;;;16.43;;
5890;SDS011;2971;52.420;7.080;2023-07-29T01:20:37;17.13;;;15.63;;
5890;SDS011;2971;52.420;7.080;2023-07-29T01:23:04;18.80;;;16.90;;
5890;SDS011;2971;52.420;7.080;2023-07-29T01:25:29;17.27;;;15.47;;
5890;SDS011;2971;52.420;7.080;2023-07-29T01:27:55;18.23;;;16.50;;
5890;SDS011;2971;52.420;7.080;2023-07-29T01:30:21;18.57;;;16.80;;
5890;SDS011;2971;52.420;7.080;2023-07-29T01:38:04;18.77;;;17.10;;
5890;SDS011;2971;52.420;7.080;2023-07-29T01:40:31;19.43;;;17.63;;
5890;SDS011;2971;52.420;7.080;2023-07-29T01:42:58;19.67;;;17.77;;
5890;SDS011;2971;52.420;7.080;2023-07-29T01:45:24;19.10;;;17.27;;
5890;SDS011;2971;52.420;7.080;2023-07-29T01:47:50;19.70;;;17.80;;
5890;SDS011;2971;52.420;7.080;2023-07-29T01:50:16;20.20;;;18.23;;
5890;SDS011;2971;52.420;7.080;2023-07-29T01:52:41;20.10;;;17.93;;
5890;SDS011;2971;52.420;7.080;2023-07-29T01:55:07;20.07;;;18.00;;
5890;SDS011;2971;52.420;7.080;2023-07-29T01:57:32;19.97;;;18.07;;
5890;SDS011;2971;52.420;7.080;2023-07-29T01:59:58;20.20;;;18.30;;
5890;SDS011;2971;52.420;7.080;2023-07-29T02:02:24;20.83;;;18.60;;
5890;SDS011;2971;52.420;7.080;2023-07-29T02:04:49;21.77;;;19.63;;
5890;SDS011;2971;52.420;7.080;2023-07-29T02:07:16;21.43;;;19.33;;
5890;SDS011;2971;52.420;7.080;2023-07-29T02:09:43;19.47;;;17.60;;
5890;SDS011;2971;52.420;7.080;2023-07-29T02:12:08;19.50;;;17.60;;
5890;SDS011;2971;52.420;7.080;2023-07-29T02:14:34;19.47;;;17.37;;
5890;SDS011;2971;52.420;7.080;2023-07-29T02:16:59;19.33;;;17.43;;
5890;SDS011;2971;52.420;7.080;2023-07-29T02:19:24;18.90;;;16.97;;
5890;SDS011;2971;52.420;7.080;2023-07-29T02:21:50;18.33;;;16.60;;
5890;SDS011;2971;52.420;7.080;2023-07-29T02:24:15;19.10;;;17.20;;
5890;SDS011;2971;52.420;7.080;2023-07-29T02:26:41;16.40;;;14.77;;
5890;SDS011;2971;52.420;7.080;2023-07-29T02:29:06;18.53;;;16.63;;
5890;SDS011;2971;52.420;7.080;2023-07-29T02:31:32;19.53;;;16.80;;
5890;SDS011;2971;52.420;7.080;2023-07-29T02:33:59;18.67;;;16.87;;
5890;SDS011;2971;52.420;7.080;2023-07-29T02:36:24;18.17;;;16.37;;
5890;SDS011;2971;52.420;7.080;2023-07-29T02:38:50;18.83;;;17.03;;
5890;SDS011;2971;52.420;7.080;2023-07-29T02:41:15;21.73;;;19.63;;
5890;SDS011;2971;52.420;7.080;2023-07-29T02:43:42;24.30;;;19.10;;
5890;SDS011;2971;52.420;7.080;2023-07-29T02:46:08;22.00;;;19.73;;
5890;SDS011;2971;52.420;7.080;2023-07-29T02:48:34;22.00;;;19.77;;
5890;SDS011;2971;52.420;7.080;2023-07-29T02:50:59;23.30;;;20.97;;
5890;SDS011;2971;52.420;7.080;2023-07-29T02:53:24;23.43;;;21.03;;
5890;SDS011;2971;52.420;7.080;2023-07-29T02:55:53;21.90;;;19.60;;
5890;SDS011;2971;52.420;7.080;2023-07-29T02:58:19;23.67;;;20.40;;
5890;SDS011;2971;52.420;7.080;2023-07-29T03:00:44;24.13;;;21.33;;
5890;SDS011;2971;52.420;7.080;2023-07-29T03:03:09;23.17;;;20.77;;
5890;SDS011;2971;52.420;7.080;2023-07-29T03:05:35;23.13;;;20.73;;
5890;SDS011;2971;52.420;7.080;2023-07-29T03:08:01;23.73;;;21.33;;
5890;SDS011;2971;52.420;7.080;2023-07-29T03:10:26;23.53;;;21.03;;
5890;SDS011;2971;52.420;7.080;2023-07-29T03:12:54;23.20;;;20.50;;
5890;SDS011;2971;52.420;7.080;2023-07-29T03:15:24;22.57;;;20.37;;
5890;SDS011;2971;52.420;7.080;2023-07-29T03:17:50;22.23;;;19.90;;
5890;SDS011;2971;52.420;7.080;2023-07-29T03:20:15;24.23;;;21.17;;
5890;SDS011;2971;52.420;7.080;2023-07-29T03:22:43;23.53;;;21.13;;
5890;SDS011;2971;52.420;7.080;2023-07-29T03:25:09;21.93;;;19.87;;
5890;SDS011;2971;52.420;7.080;2023-07-29T03:27:34;23.07;;;20.57;;
5890;SDS011;2971;52.420;7.080;2023-07-29T03:30:02;25.60;;;21.27;;
5890;SDS011;2971;52.420;7.080;2023-07-29T03:32:28;22.87;;;20.53;;
5890;SDS011;2971;52.420;7.080;2023-07-29T03:34:53;23.10;;;20.63;;
5890;SDS011;2971;52.420;7.080;2023-07-29T03:37:22;20.97;;;18.80;;
5890;SDS011;2971;52.420;7.080;2023-07-29T03:39:47;20.57;;;18.57;;
5890;SDS011;2971;52.420;7.080;2023-07-29T03:42:13;21.40;;;19.20;;
5890;SDS011;2971;52.420;7.080;2023-07-29T03:44:39;20.60;;;18.60;;
5890;SDS011;2971;52.420;7.080;2023-07-29T03:47:05;20.57;;;18.57;;
5890;SDS011;2971;52.420;7.080;2023-07-29T03:49:31;20.33;;;18.17;;
5890;SDS011;2971;52.420;7.080;2023-07-29T03:51:56;20.40;;;18.23;;
5890;SDS011;2971;52.420;7.080;2023-07-29T03:54:22;19.77;;;17.77;;
5890;SDS011;2971;52.420;7.080;2023-07-29T03:56:47;20.40;;;18.23;;
5890;SDS011;2971;52.420;7.080;2023-07-29T03:59:12;19.83;;;17.90;;
5890;SDS011;2971;52.420;7.080;2023-07-29T04:01:38;18.67;;;16.97;;
5890;SDS011;2971;52.420;7.080;2023-07-29T04:04:03;19.63;;;17.20;;
5890;SDS011;2971;52.420;7.080;2023-07-29T04:06:29;18.93;;;17.07;;
5890;SDS011;2971;52.420;7.080;2023-07-29T04:08:55;22.27;;;17.60;;
5890;SDS011;2971;52.420;7.080;2023-07-29T04:11:20;20.20;;;18.07;;
5890;SDS011;2971;52.420;7.080;2023-07-29T04:13:46;19.70;;;17.70;;
5890;SDS011;2971;52.420;7.080;2023-07-29T04:16:11;19.50;;;17.50;;
5890;SDS011;2971;52.420;7.080;2023-07-29T04:18:36;20.10;;;18.03;;
5890;SDS011;2971;52.420;7.080;2023-07-29T04:21:02;20.53;;;18.53;;
5890;SDS011;2971;52.420;7.080;2023-07-29T04:23:27;20.23;;;18.13;;
5890;SDS011;2971;52.420;7.080;2023-07-29T04:25:53;20.90;;;18.80;;
5890;SDS011;2971;52.420;7.080;2023-07-29T04:28:18;21.13;;;19.23;;
5890;SDS011;2971;52.420;7.080;2023-07-29T04:30:44;19.53;;;17.47;;
5890;SDS011;2971;52.420;7.080;2023-07-29T04:33:09;22.07;;;20.07;;
5890;SDS011;2971;52.420;7.080;2023-07-29T04:35:34;21.23;;;19.20;;
5890;SDS011;2971;52.420;7.080;2023-07-29T04:38:00;21.20;;;19.17;;
5890;SDS011;2971;52.420;7.080;2023-07-29T04:40:25;21.80;;;19.50;;
5890;SDS011;2971;52.420;7.080;2023-07-29T04:42:51;22.70;;;20.40;;
5890;SDS011;2971;52.420;7.080;2023-07-29T04:45:16;22.10;;;19.80;;
5890;SDS011;2971;52.420;7.080;2023-07-29T04:47:42;22.10;;;19.73;;
5890;SDS011;2971;52.420;7.080;2023-07-29T04:50:07;22.67;;;20.10;;
5890;SDS011;2971;52.420;7.080;2023-07-29T04:52:33;22.03;;;19.83;;
5890;SDS011;2971;52.420;7.080;2023-07-29T04:54:58;22.13;;;19.83;;
5890;SDS011;2971;52.420;7.080;2023-07-29T04:57:24;20.50;;;18.43;;
5890;SDS011;2971;52.420;7.080;2023-07-29T04:59:49;20.80;;;18.70;;
5890;SDS011;2971;52.420;7.080;2023-07-29T05:02:15;19.70;;;17.77;;
5890;SDS011;2971;52.420;7.080;2023-07-29T05:04:40;21.47;;;17.87;;
5890;SDS011;2971;52.420;7.080;2023-07-29T05:07:06;20.20;;;18.20;;
5890;SDS011;2971;52.420;7.080;2023-07-29T05:09:31;18.27;;;16.57;;
5890;SDS011;2971;52.420;7.080;2023-07-29T05:11:56;19.07;;;17.17;;
5890;SDS011;2971;52.420;7.080;2023-07-29T05:14:22;18.60;;;16.77;;
5890;SDS011;2971;52.420;7.080;2023-07-29T05:16:47;17.93;;;16.03;;
5890;SDS011;2971;52.420;7.080;2023-07-29T05:19:13;18.87;;;16.97;;
5890;SDS011;2971;52.420;7.080;2023-07-29T05:21:38;17.23;;;15.57;;
5890;SDS011;2971;52.420;7.080;2023-07-29T05:24:04;17.23;;;15.53;;
5890;SDS011;2971;52.420;7.080;2023-07-29T05:26:29;16.60;;;15.00;;
5890;SDS011;2971;52.420;7.080;2023-07-29T05:28:55;16.13;;;14.53;;
5890;SDS011;2971;52.420;7.080;2023-07-29T05:31:21;14.93;;;13.43;;
5890;SDS011;2971;52.420;7.080;2023-07-29T05:33:47;15.53;;;14.13;;
5890;SDS011;2971;52.420;7.080;2023-07-29T05:36:12;14.67;;;13.27;;
5890;SDS011;2971;52.420;7.080;2023-07-29T05:38:38;14.40;;;12.53;;
5890;SDS011;2971;52.420;7.080;2023-07-29T05:41:03;14.67;;;13.17;;
5890;SDS011;2971;52.420;7.080;2023-07-29T05:43:29;14.37;;;13.03;;
5890;SDS011;2971;52.420;7.080;2023-07-29T05:45:54;14.57;;;12.97;;
5890;SDS011;2971;52.420;7.080;2023-07-29T05:48:20;13.90;;;12.40;;
5890;SDS011;2971;52.420;7.080;2023-07-29T05:50:45;13.90;;;12.53;;
5890;SDS011;2971;52.420;7.080;2023-07-29T05:53:10;14.03;;;12.63;;
5890;SDS011;2971;52.420;7.080;2023-07-29T05:55:36;14.53;;;12.50;;
5890;SDS011;2971;52.420;7.080;2023-07-29T05:58:01;13.10;;;11.90;;
5890;SDS011;2971;52.420;7.080;2023-07-29T06:00:27;13.47;;;12.07;;
5890;SDS011;2971;52.420;7.080;2023-07-29T06:02:52;13.53;;;12.23;;
5890;SDS011;2971;52.420;7.080;2023-07-29T06:05:18;13.80;;;12.37;;
5890;SDS011;2971;52.420;7.080;2023-07-29T06:07:43;14.00;;;12.47;;
5890;SDS011;2971;52.420;7.080;2023-07-29T06:10:10;13.47;;;12.17;;
5890;SDS011;2971;52.420;7.080;2023-07-29T06:12:37;13.87;;;12.43;;
5890;SDS011;2971;52.420;7.080;2023-07-29T06:15:03;13.73;;;12.10;;
5890;SDS011;2971;52.420;7.080;2023-07-29T06:17:29;13.13;;;11.80;;
5890;SDS011;2971;52.420;7.080;2023-07-29T06:19:54;13.53;;;12.13;;
5890;SDS011;2971;52.420;7.080;2023-07-29T06:22:20;13.40;;;12.10;;
5890;SDS011;2971;52.420;7.080;2023-07-29T06:24:45;15.03;;;12.20;;
5890;SDS011;2971;52.420;7.080;2023-07-29T06:27:11;13.20;;;11.83;;
5890;SDS011;2971;52.420;7.080;2023-07-29T06:29:36;12.93;;;11.63;;
5890;SDS011;2971;52.420;7.080;2023-07-29T06:32:01;12.03;;;10.83;;
5890;SDS011;2971;52.420;7.080;2023-07-29T06:34:27;12.47;;;11.17;;
5890;SDS011;2971;52.420;7.080;2023-07-29T06:36:52;11.17;;;10.07;;
5890;SDS011;2971;52.420;7.080;2023-07-29T06:39:18;10.97;;;9.87;;
5890;SDS011;2971;52.420;7.080;2023-07-29T06:41:43;9.90;;;9.00;;
5890;SDS011;2971;52.420;7.080;2023-07-29T06:44:08;9.70;;;8.70;;
5890;SDS011;2971;52.420;7.080;2023-07-29T06:46:34;9.90;;;8.90;;
5890;SDS011;2971;52.420;7.080;2023-07-29T06:48:59;9.90;;;9.00;;
5890;SDS011;2971;52.420;7.080;2023-07-29T06:51:24;9.70;;;8.47;;
5890;SDS011;2971;52.420;7.080;2023-07-29T06:53:50;9.70;;;8.70;;
5890;SDS011;2971;52.420;7.080;2023-07-29T06:56:15;9.07;;;8.17;;
5890;SDS011;2971;52.420;7.080;2023-07-29T06:58:41;9.63;;;8.67;;
5890;SDS011;2971;52.420;7.080;2023-07-29T07:01:06;9.50;;;8.50;;
5890;SDS011;2971;52.420;7.080;2023-07-29T07:03:32;9.90;;;8.77;;
5890;SDS011;2971;52.420;7.080;2023-07-29T07:05:57;9.83;;;8.60;;
5890;SDS011;2971;52.420;7.080;2023-07-29T07:08:22;9.93;;;8.30;;
5890;SDS011;2971;52.420;7.080;2023-07-29T07:10:49;9.13;;;8.23;;
5890;SDS011;2971;52.420;7.080;2023-07-29T07:13:14;8.37;;;7.57;;
5890;SDS011;2971;52.420;7.080;2023-07-29T07:15:40;8.50;;;7.70;;
5890;SDS011;2971;52.420;7.080;2023-07-29T07:18:05;8.53;;;7.83;;
5890;SDS011;2971;52.420;7.080;2023-07-29T07:20:31;10.33;;;8.97;;
5890;SDS011;2971;52.420;7.080;2023-07-29T07:22:56;9.53;;;8.67;;
5890;SDS011;2971;52.420;7.080;2023-07-29T07:25:21;9.50;;;8.47;;
5890;SDS011;2971;52.420;7.080;2023-07-29T07:27:47;9.43;;;8.50;;
5890;SDS011;2971;52.420;7.080;2023-07-29T07:30:13;9.87;;;8.23;;
5890;SDS011;2971;52.420;7.080;2023-07-29T07:32:39;8.87;;;8.07;;
5890;SDS011;2971;52.420;7.080;2023-07-29T07:35:04;9.23;;;8.30;;
5890;SDS011;2971;52.420;7.080;2023-07-29T07:37:30;9.37;;;8.47;;
5890;SDS011;2971;52.420;7.080;2023-07-29T07:39:56;8.37;;;7.60;;
5890;SDS011;2971;52.420;7.080;2023-07-29T07:42:21;8.50;;;7.70;;
5890;SDS011;2971;52.420;7.080;2023-07-29T07:44:47;9.53;;;7.50;;
5890;SDS011;2971;52.420;7.080;2023-07-29T07:47:12;8.37;;;6.93;;
5890;SDS011;2971;52.420;7.080;2023-07-29T07:49:37;8.63;;;6.40;;
5890;SDS011;2971;52.420;7.080;2023-07-29T07:52:03;7.73;;;6.90;;
5890;SDS011;2971;52.420;7.080;2023-07-29T07:54:30;7.00;;;6.40;;
5890;SDS011;2971;52.420;7.080;2023-07-29T07:56:55;7.40;;;6.60;;
5890;SDS011;2971;52.420;7.080;2023-07-29T07:59:20;7.50;;;6.73;;
5890;SDS011;2971;52.420;7.080;2023-07-29T08:01:46;7.50;;;6.53;;
5890;SDS011;2971;52.420;7.080;2023-07-29T08:04:12;8.97;;;6.83;;
5890;SDS011;2971;52.420;7.080;2023-07-29T08:06:37;7.17;;;6.17;;
5890;SDS011;2971;52.420;7.080;2023-07-29T08:09:03;7.40;;;6.57;;
5890;SDS011;2971;52.420;7.080;2023-07-29T08:11:28;7.50;;;6.67;;
5890;SDS011;2971;52.420;7.080;2023-07-29T08:13:53;7.37;;;6.43;;
5890;SDS011;2971;52.420;7.080;2023-07-29T08:16:19;9.47;;;6.70;;
5890;SDS011;2971;52.420;7.080;2023-07-29T08:18:44;6.90;;;6.23;;
5890;SDS011;2971;52.420;7.080;2023-07-29T08:21:10;7.33;;;6.50;;
5890;SDS011;2971;52.420;7.080;2023-07-29T08:23:36;7.37;;;6.33;;
5890;SDS011;2971;52.420;7.080;2023-07-29T08:26:02;7.93;;;5.93;;
5890;SDS011;2971;52.420;7.080;2023-07-29T08:28:33;7.13;;;6.40;;
5890;SDS011;2971;52.420;7.080;2023-07-29T08:31:03;6.70;;;5.77;;
5890;SDS011;2971;52.420;7.080;2023-07-29T08:33:29;6.40;;;5.17;;
5890;SDS011;2971;52.420;7.080;2023-07-29T08:35:55;5.67;;;5.17;;
5890;SDS011;2971;52.420;7.080;2023-07-29T08:38:20;6.97;;;5.60;;
5890;SDS011;2971;52.420;7.080;2023-07-29T08:40:58;7.97;;;5.47;;
5890;SDS011;2971;52.420;7.080;2023-07-29T08:43:44;6.13;;;5.53;;
5890;SDS011;2971;52.420;7.080;2023-07-29T08:46:15;7.43;;;4.93;;
5890;SDS011;2971;52.420;7.080;2023-07-29T08:48:42;5.67;;;5.07;;
5890;SDS011;2971;52.420;7.080;2023-07-29T08:51:08;6.20;;;4.70;;
5890;SDS011;2971;52.420;7.080;2023-07-29T08:53:35;6.07;;;4.83;;
5890;SDS011;2971;52.420;7.080;2023-07-29T08:56:00;6.67;;;4.60;;
5890;SDS011;2971;52.420;7.080;2023-07-29T08:58:27;7.20;;;5.10;;
5890;SDS011;2971;52.420;7.080;2023-07-29T09:00:52;4.57;;;4.00;;
5890;SDS011;2971;52.420;7.080;2023-07-29T09:03:18;4.53;;;3.90;;
5890;SDS011;2971;52.420;7.080;2023-07-29T09:05:45;4.40;;;4.00;;
5890;SDS011;2971;52.420;7.080;2023-07-29T09:08:10;6.40;;;3.90;;
5890;SDS011;2971;52.420;7.080;2023-07-29T09:10:36;5.03;;;3.97;;
5890;SDS011;2971;52.420;7.080;2023-07-29T09:13:02;4.97;;;3.77;;
5890;SDS011;2971;52.420;7.080;2023-07-29T09:15:29;4.60;;;3.50;;
5890;SDS011;2971;52.420;7.080;2023-07-29T09:18:16;6.87;;;3.67;;
5890;SDS011;2971;52.420;7.080;2023-07-29T09:20:46;4.63;;;3.57;;
5890;SDS011;2971;52.420;7.080;2023-07-29T09:23:13;6.70;;;3.57;;
5890;SDS011;2971;52.420;7.080;2023-07-29T09:25:38;5.20;;;3.30;;
5890;SDS011;2971;52.420;7.080;2023-07-29T09:28:08;6.10;;;3.20;;
5890;SDS011;2971;52.420;7.080;2023-07-29T09:30:42;3.83;;;3.03;;
5890;SDS011;2971;52.420;7.080;2023-07-29T09:33:10;6.03;;;3.07;;
5890;SDS011;2971;52.420;7.080;2023-07-29T09:35:36;5.50;;;3.03;;
5890;SDS011;2971;52.420;7.080;2023-07-29T09:38:02;5.10;;;3.20;;
5890;SDS011;2971;52.420;7.080;2023-07-29T09:40:35;4.27;;;2.90;;
5890;SDS011;2971;52.420;7.080;2023-07-29T09:43:04;3.73;;;2.97;;
5890;SDS011;2971;52.420;7.080;2023-07-29T09:45:32;4.03;;;3.27;;
5890;SDS011;2971;52.420;7.080;2023-07-29T09:47:58;4.23;;;2.80;;
5890;SDS011;2971;52.420;7.080;2023-07-29T09:50:24;4.40;;;2.93;;
5890;SDS011;2971;52.420;7.080;2023-07-29T09:52:51;3.30;;;2.93;;
5890;SDS011;2971;52.420;7.080;2023-07-29T09:55:18;3.83;;;2.83;;
5890;SDS011;2971;52.420;7.080;2023-07-29T09:57:44;3.40;;;2.60;;
5890;SDS011;2971;52.420;7.080;2023-07-29T10:00:13;3.43;;;2.73;;
5890;SDS011;2971;52.420;7.080;2023-07-29T10:02:40;3.37;;;3.00;;
5890;SDS011;2971;52.420;7.080;2023-07-29T10:05:07;3.13;;;2.70;;
5890;SDS011;2971;52.420;7.080;2023-07-29T10:07:34;4.97;;;3.17;;
5890;SDS011;2971;52.420;7.080;2023-07-29T10:10:01;4.40;;;3.10;;
5890;SDS011;2971;52.420;7.080;2023-07-29T10:12:28;4.23;;;3.33;;
5890;SDS011;2971;52.420;7.080;2023-07-29T10:14:55;5.67;;;3.70;;
5890;SDS011;2971;52.420;7.080;2023-07-29T10:17:30;5.20;;;3.40;;
5890;SDS011;2971;52.420;7.080;2023-07-29T10:19:56;6.63;;;4.77;;
5890;SDS011;2971;52.420;7.080;2023-07-29T10:22:25;3.93;;;3.23;;
5890;SDS011;2971;52.420;7.080;2023-07-29T10:24:53;3.90;;;3.33;;
5890;SDS011;2971;52.420;7.080;2023-07-29T10:27:19;4.23;;;3.83;;
5890;SDS011;2971;52.420;7.080;2023-07-29T10:29:46;3.87;;;3.40;;
5890;SDS011;2971;52.420;7.080;2023-07-29T10:32:12;4.47;;;3.50;;
5890;SDS011;2971;52.420;7.080;2023-07-29T10:34:37;4.07;;;3.50;;
5890;SDS011;2971;52.420;7.080;2023-07-29T10:37:04;4.17;;;3.77;;
5890;SDS011;2971;52.420;7.080;2023-07-29T10:39:37;4.47;;;3.70;;
5890;SDS011;2971;52.420;7.080;2023-07-29T10:42:05;3.90;;;3.57;;
5890;SDS011;2971;52.420;7.080;2023-07-29T10:47:12;6.37;;;3.60;;
5890;SDS011;2971;52.420;7.080;2023-07-29T10:49:41;3.53;;;3.23;;
5890;SDS011;2971;52.420;7.080;2023-07-29T10:52:17;5.03;;;3.63;;
5890;SDS011;2971;52.420;7.080;2023-07-29T10:54:53;4.33;;;3.40;;
5890;SDS011;2971;52.420;7.080;2023-07-29T10:57:32;4.00;;;3.20;;
5890;SDS011;2971;52.420;7.080;2023-07-29T10:59:58;3.33;;;3.00;;
5890;SDS011;2971;52.420;7.080;2023-07-29T11:02:32;3.70;;;3.27;;
5890;SDS011;2971;52.420;7.080;2023-07-29T11:04:59;4.57;;;3.43;;
5890;SDS011;2971;52.420;7.080;2023-07-29T11:07:26;3.60;;;3.30;;
5890;SDS011;2971;52.420;7.080;2023-07-29T11:12:41;5.80;;;3.40;;
5890;SDS011;2971;52.420;7.080;2023-07-29T11:17:46;3.60;;;3.30;;
5890;SDS011;2971;52.420;7.080;2023-07-29T11:20:11;3.83;;;3.43;;
5890;SDS011;2971;52.420;7.080;2023-07-29T11:22:37;4.40;;;4.00;;
5890;SDS011;2971;52.420;7.080;2023-07-29T11:25:03;4.07;;;3.70;;
5890;SDS011;2971;52.420;7.080;2023-07-29T11:27:30;4.30;;;3.83;;
5890;SDS011;2971;52.420;7.080;2023-07-29T11:30:05;4.70;;;4.30;;
5890;SDS011;2971;52.420;7.080;2023-07-29T11:32:35;4.67;;;4.10;;
5890;SDS011;2971;52.420;7.080;2023-07-29T11:35:09;4.20;;;3.80;;
5890;SDS011;2971;52.420;7.080;2023-07-29T11:37:39;4.60;;;3.73;;
5890;SDS011;2971;52.420;7.080;2023-07-29T11:40:06;5.03;;;4.10;;
5890;SDS011;2971;52.420;7.080;2023-07-29T11:42:33;4.13;;;3.73;;
5890;SDS011;2971;52.420;7.080;2023-07-29T11:44:59;3.87;;;3.47;;
5890;SDS011;2971;52.420;7.080;2023-07-29T11:47:25;4.10;;;3.70;;
5890;SDS011;2971;52.420;7.080;2023-07-29T11:49:51;5.50;;;3.50;;
5890;SDS011;2971;52.420;7.080;2023-07-29T11:52:16;3.83;;;3.50;;
5890;SDS011;2971;52.420;7.080;2023-07-29T11:54:44;4.20;;;3.40;;
5890;SDS011;2971;52.420;7.080;2023-07-29T11:57:11;5.03;;;3.50;;
5890;SDS011;2971;52.420;7.080;2023-07-29T11:59:37;5.33;;;3.57;;
5890;SDS011;2971;52.420;7.080;2023-07-29T12:02:08;3.63;;;3.33;;
5890;SDS011;2971;52.420;7.080;2023-07-29T12:04:37;4.40;;;3.67;;
5890;SDS011;2971;52.420;7.080;2023-07-29T12:07:03;4.20;;;3.73;;
5890;SDS011;2971;52.420;7.080;2023-07-29T12:09:28;4.30;;;3.90;;
5890;SDS011;2971;52.420;7.080;2023-07-29T12:11:54;5.53;;;3.70;;
5890;SDS011;2971;52.420;7.080;2023-07-29T12:14:20;5.03;;;3.50;;
5890;SDS011;2971;52.420;7.080;2023-07-29T12:16:47;5.97;;;3.70;;
5890;SDS011;2971;52.420;7.080;2023-07-29T12:19:13;4.17;;;3.87;;
5890;SDS011;2971;52.420;7.080;2023-07-29T12:21:41;4.43;;;4.03;;
5890;SDS011;2971;52.420;7.080;2023-07-29T12:24:07;5.17;;;4.03;;
5890;SDS011;2971;52.420;7.080;2023-07-29T12:26:32;4.80;;;4.33;;
5890;SDS011;2971;52.420;7.080;2023-07-29T12:28:58;4.60;;;4.13;;
5890;SDS011;2971;52.420;7.080;2023-07-29T12:31:32;5.73;;;4.23;;
5890;SDS011;2971;52.420;7.080;2023-07-29T12:33:58;4.57;;;4.17;;
5890;SDS011;2971;52.420;7.080;2023-07-29T12:39:25;3.77;;;3.37;;
5890;SDS011;2971;52.420;7.080;2023-07-29T12:41:52;7.13;;;4.47;;
5890;SDS011;2971;52.420;7.080;2023-07-29T12:44:19;5.17;;;3.60;;
5890;SDS011;2971;52.420;7.080;2023-07-29T12:46:45;3.67;;;3.37;;
5890;SDS011;2971;52.420;7.080;2023-07-29T12:49:11;4.37;;;3.33;;
5890;SDS011;2971;52.420;7.080;2023-07-29T12:51:36;4.07;;;3.13;;
5890;SDS011;2971;52.420;7.080;2023-07-29T12:54:02;3.73;;;3.20;;
5890;SDS011;2971;52.420;7.080;2023-07-29T12:56:30;3.30;;;3.00;;
5890;SDS011;2971;52.420;7.080;2023-07-29T12:58:56;4.10;;;3.03;;
5890;SDS011;2971;52.420;7.080;2023-07-29T13:01:23;3.43;;;3.13;;
5890;SDS011;2971;52.420;7.080;2023-07-29T13:03:49;3.40;;;3.10;;
5890;SDS011;2971;52.420;7.080;2023-07-29T13:06:14;3.40;;;3.10;;
5890;SDS011;2971;52.420;7.080;2023-07-29T13:08:40;3.57;;;3.23;;
5890;SDS011;2971;52.420;7.080;2023-07-29T13:11:06;4.43;;;3.37;;
5890;SDS011;2971;52.420;7.080;2023-07-29T13:13:31;3.10;;;2.83;;
5890;SDS011;2971;52.420;7.080;2023-07-29T13:15:57;2.90;;;2.70;;
5890;SDS011;2971;52.420;7.080;2023-07-29T13:18:22;5.33;;;2.80;;
5890;SDS011;2971;52.420;7.080;2023-07-29T13:20:48;5.37;;;3.17;;
5890;SDS011;2971;52.420;7.080;2023-07-29T13:23:13;3.83;;;3.10;;
5890;SDS011;2971;52.420;7.080;2023-07-29T13:25:39;3.30;;;3.00;;
5890;SDS011;2971;52.420;7.080;2023-07-29T13:28:05;5.57;;;2.83;;
5890;SDS011;2971;52.420;7.080;2023-07-29T13:30:30;3.90;;;2.63;;
5890;SDS011;2971;52.420;7.080;2023-07-29T13:32:56;3.37;;;2.73;;
5890;SDS011;2971;52.420;7.080;2023-07-29T13:35:21;2.70;;;2.50;;
5890;SDS011;2971;52.420;7.080;2023-07-29T13:37:47;2.87;;;2.60;;
5890;SDS011;2971;52.420;7.080;2023-07-29T13:40:12;2.93;;;2.63;;
5890;SDS011;2971;52.420;7.080;2023-07-29T13:42:37;2.80;;;2.60;;
5890;SDS011;2971;52.420;7.080;2023-07-29T13:45:04;4.90;;;3.00;;
5890;SDS011;2971;52.420;7.080;2023-07-29T13:47:30;3.53;;;2.80;;
5890;SDS011;2971;52.420;7.080;2023-07-29T13:49:55;6.00;;;2.60;;
5890;SDS011;2971;52.420;7.080;2023-07-29T13:52:20;4.10;;;2.83;;
5890;SDS011;2971;52.420;7.080;2023-07-29T13:54:46;3.17;;;2.70;;
5890;SDS011;2971;52.420;7.080;2023-07-29T13:57:11;3.30;;;2.80;;
5890;SDS011;2971;52.420;7.080;2023-07-29T13:59:37;3.47;;;2.80;;
5890;SDS011;2971;52.420;7.080;2023-07-29T14:02:05;3.37;;;3.00;;
5890;SDS011;2971;52.420;7.080;2023-07-29T14:04:34;3.03;;;2.20;;
5890;SDS011;2971;52.420;7.080;2023-07-29T14:06:59;3.60;;;3.30;;
5890;SDS011;2971;52.420;7.080;2023-07-29T14:09:25;4.07;;;3.10;;
5890;SDS011;2971;52.420;7.080;2023-07-29T14:11:51;3.58;;;3.20;;
5890;SDS011;2971;52.420;7.080;2023-07-29T14:14:16;4.80;;;3.70;;
5890;SDS011;2971;52.420;7.080;2023-07-29T14:16:42;3.38;;;3.08;;
5890;SDS011;2971;52.420;7.080;2023-07-29T14:19:07;3.65;;;1.90;;
5890;SDS011;2971;52.420;7.080;2023-07-29T14:21:32;1.90;;;1.77;;
5890;SDS011;2971;52.420;7.080;2023-07-29T14:23:58;1.92;;;1.70;;
5890;SDS011;2971;52.420;7.080;2023-07-29T14:26:23;2.75;;;1.63;;
5890;SDS011;2971;52.420;7.080;2023-07-29T14:28:49;2.50;;;1.90;;
5890;SDS011;2971;52.420;7.080;2023-07-29T14:31:15;1.83;;;1.50;;
5890;SDS011;2971;52.420;7.080;2023-07-29T14:33:42;1.60;;;1.40;;
5890;SDS011;2971;52.420;7.080;2023-07-29T14:36:10;1.60;;;1.50;;
5890;SDS011;2971;52.420;7.080;2023-07-29T14:38:35;1.65;;;1.40;;
5890;SDS011;2971;52.420;7.080;2023-07-29T14:41:01;2.53;;;2.33;;
5890;SDS011;2971;52.420;7.080;2023-07-29T14:43:27;2.35;;;2.15;;
5890;SDS011;2971;52.420;7.080;2023-07-29T14:45:52;3.42;;;2.35;;
5890;SDS011;2971;52.420;7.080;2023-07-29T14:48:18;1.40;;;1.30;;
5890;SDS011;2971;52.420;7.080;2023-07-29T14:50:43;1.70;;;1.60;;
5890;SDS011;2971;52.420;7.080;2023-07-29T14:53:09;3.85;;;1.58;;
5890;SDS011;2971;52.420;7.080;2023-07-29T14:55:36;3.22;;;1.30;;
5890;SDS011;2971;52.420;7.080;2023-07-29T14:58:02;2.58;;;1.33;;
5890;SDS011;2971;52.420;7.080;2023-07-29T15:00:27;1.30;;;1.20;;
5890;SDS011;2971;52.420;7.080;2023-07-29T15:02:52;1.63;;;1.52;;
5890;SDS011;2971;52.420;7.080;2023-07-29T15:05:18;1.73;;;1.63;;
5890;SDS011;2971;52.420;7.080;2023-07-29T15:07:43;2.13;;;1.48;;
5890;SDS011;2971;52.420;7.080;2023-07-29T15:10:09;1.95;;;1.60;;
5890;SDS011;2971;52.420;7.080;2023-07-29T15:12:34;2.10;;;1.90;;
5890;SDS011;2971;52.420;7.080;2023-07-29T15:15:00;1.85;;;1.75;;
5890;SDS011;2971;52.420;7.080;2023-07-29T15:17:25;2.53;;;1.63;;
5890;SDS011;2971;52.420;7.080;2023-07-29T15:19:50;2.58;;;2.00;;
5890;SDS011;2971;52.420;7.080;2023-07-29T15:22:16;1.83;;;1.70;;